Aviation Digital Data Service (ADDS)

Output produced by TAFs form (0014 UTC 25 November 2017)
found at http://www.aviationweather.gov/adds/tafs/
 
KIWA 242320Z 2500/2524 27004KT P6SM FEW250 
     FM250300 11006KT P6SM SCT250 
     FM251900 28004KT P6SM SCT250 AMD LTD TO CLD VIS AND WIND 2503/2513